createdAt,value
2023-05-05T00:02:25.681Z,33.27
2023-05-05T00:04:52.463Z,33.20
2023-05-05T00:07:18.800Z,33.19
2023-05-05T00:09:45.118Z,33.20
2023-05-05T00:12:11.624Z,33.25
2023-05-05T00:14:37.938Z,33.29
2023-05-05T00:17:04.354Z,33.29
2023-05-05T00:19:31.021Z,33.30
2023-05-05T00:21:57.347Z,33.23
2023-05-05T00:24:23.657Z,33.29
2023-05-05T00:26:50.050Z,33.22
2023-05-05T00:29:16.433Z,33.25
2023-05-05T00:31:42.832Z,33.22
2023-05-05T00:34:09.223Z,33.26
2023-05-05T00:36:35.905Z,33.17
2023-05-05T00:39:02.223Z,33.14
2023-05-05T00:41:28.561Z,33.25
2023-05-05T00:43:55.041Z,33.20
2023-05-05T00:46:25.294Z,33.29
2023-05-05T00:48:51.701Z,33.30
2023-05-05T00:51:18.163Z,33.20
2023-05-05T00:53:45.131Z,33.24
2023-05-05T00:56:12.782Z,33.21
2023-05-05T00:58:42.329Z,33.09
2023-05-05T01:01:08.892Z,33.32
2023-05-05T01:03:44.119Z,33.18
2023-05-05T01:06:15.368Z,33.26
2023-05-05T01:08:41.606Z,33.26
2023-05-05T01:11:12.605Z,33.04
2023-05-05T01:13:48.170Z,33.26
2023-05-05T01:16:24.803Z,33.17
2023-05-05T01:18:55.620Z,33.14
2023-05-05T01:21:27.444Z,33.18
2023-05-05T01:24:00.499Z,33.04
2023-05-05T01:26:35.918Z,33.20
2023-05-05T01:29:09.145Z,33.13
2023-05-05T01:31:41.591Z,33.22
2023-05-05T01:34:08.597Z,33.06
2023-05-05T01:36:36.345Z,33.01
2023-05-05T01:39:03.016Z,33.14
2023-05-05T01:41:35.243Z,33.08
2023-05-05T01:44:01.561Z,33.07
2023-05-05T01:46:27.892Z,33.08
2023-05-05T01:48:54.208Z,33.18
2023-05-05T01:51:20.566Z,33.11
2023-05-05T01:53:49.840Z,33.14
2023-05-05T01:56:16.327Z,33.01
2023-05-05T01:58:42.887Z,33.33
2023-05-05T02:01:09.226Z,33.12
2023-05-05T02:03:36.218Z,32.96
2023-05-05T02:06:02.541Z,33.00
2023-05-05T02:08:28.863Z,32.54
2023-05-05T02:10:55.224Z,32.75
2023-05-05T02:13:21.962Z,32.70
2023-05-05T02:15:48.419Z,32.39
2023-05-05T02:18:14.789Z,32.26
2023-05-05T02:20:41.108Z,32.36
2023-05-05T02:23:08.014Z,32.36
2023-05-05T02:25:38.637Z,32.41
2023-05-05T02:28:05.209Z,32.57
2023-05-05T02:30:32.271Z,32.54
2023-05-05T02:33:04.658Z,32.55
2023-05-05T02:35:40.869Z,32.56
2023-05-05T02:38:09.664Z,32.77
2023-05-05T02:40:36.354Z,32.79
2023-05-05T02:43:03.925Z,32.97
2023-05-05T02:45:30.447Z,32.73
2023-05-05T02:47:56.777Z,32.48
2023-05-05T02:50:23.180Z,32.17
2023-05-05T02:52:49.556Z,32.30
2023-05-05T02:55:16.495Z,32.16
2023-05-05T02:58:01.568Z,32.09
2023-05-05T03:00:38.480Z,32.16
2023-05-05T03:03:09.299Z,32.27
2023-05-05T03:05:38.119Z,32.27
2023-05-05T03:08:08.784Z,32.23
2023-05-05T03:10:36.366Z,32.58
2023-05-05T03:13:02.720Z,32.57
2023-05-05T03:15:30.632Z,32.44
2023-05-05T03:17:56.992Z,32.45
2023-05-05T03:20:23.299Z,32.48
2023-05-05T03:22:49.628Z,32.73
2023-05-05T03:25:15.961Z,32.82
2023-05-05T03:27:42.283Z,32.75
2023-05-05T03:30:09.067Z,32.79
2023-05-05T03:32:35.622Z,33.00
2023-05-05T03:35:02.091Z,32.80
2023-05-05T03:37:28.413Z,32.76
2023-05-05T03:39:54.748Z,32.90
2023-05-05T03:42:21.106Z,32.77
2023-05-05T03:44:47.419Z,32.74
2023-05-05T03:47:13.741Z,32.77
2023-05-05T03:49:40.092Z,32.42
2023-05-05T03:52:06.522Z,32.85
2023-05-05T03:54:32.909Z,32.83
2023-05-05T03:56:59.913Z,32.75
2023-05-05T03:59:26.225Z,32.77
2023-05-05T04:01:52.535Z,32.63
2023-05-05T04:04:18.968Z,32.52
2023-05-05T04:06:45.489Z,32.43
2023-05-05T04:09:12.311Z,32.31
2023-05-05T04:11:38.651Z,32.23
2023-05-05T04:14:05.232Z,32.17
2023-05-05T04:16:31.656Z,32.09
2023-05-05T04:18:58.000Z,32.22
2023-05-05T04:21:24.303Z,31.93
2023-05-05T04:23:50.746Z,32.18
2023-05-05T04:26:17.072Z,32.08
2023-05-05T04:28:43.422Z,32.24
2023-05-05T04:31:10.518Z,32.23
2023-05-05T04:33:36.872Z,32.44
2023-05-05T04:36:03.195Z,32.36
2023-05-05T04:38:29.558Z,32.37
2023-05-05T04:40:55.925Z,32.31
2023-05-05T04:43:22.257Z,32.42
2023-05-05T04:45:52.022Z,32.34
2023-05-05T04:48:20.654Z,32.45
2023-05-05T04:50:47.062Z,32.41
2023-05-05T04:53:13.385Z,32.49
2023-05-05T04:55:39.699Z,32.53
2023-05-05T04:58:06.010Z,32.50
2023-05-05T05:00:32.495Z,32.68
2023-05-05T05:02:58.878Z,32.57
2023-05-05T05:05:25.289Z,32.58
2023-05-05T05:07:51.619Z,32.49
2023-05-05T05:10:18.169Z,32.76
2023-05-05T05:12:44.534Z,32.58
2023-05-05T05:15:11.081Z,32.55
2023-05-05T05:17:37.421Z,32.41
2023-05-05T05:20:04.963Z,32.34
2023-05-05T05:22:31.675Z,32.32
2023-05-05T05:24:57.990Z,32.17
2023-05-05T05:27:24.696Z,32.16
2023-05-05T05:29:51.310Z,32.39
2023-05-05T05:32:17.755Z,32.13
2023-05-05T05:34:44.184Z,32.00
2023-05-05T05:37:10.492Z,31.95
2023-05-05T05:39:36.818Z,32.04
2023-05-05T05:42:03.532Z,32.08
2023-05-05T05:44:29.889Z,32.11
2023-05-05T05:46:56.280Z,32.03
2023-05-05T05:49:22.597Z,32.02
2023-05-05T05:51:48.911Z,31.96
2023-05-05T05:54:15.276Z,31.96
2023-05-05T05:56:41.602Z,31.98
2023-05-05T05:59:09.996Z,31.83
2023-05-05T06:01:36.800Z,32.07
2023-05-05T06:04:03.203Z,31.73
2023-05-05T06:06:29.628Z,31.85
2023-05-05T06:08:55.938Z,31.89
2023-05-05T06:11:22.474Z,32.03
2023-05-05T06:13:48.802Z,31.98
2023-05-05T06:16:15.235Z,31.94
2023-05-05T06:18:41.581Z,31.86
2023-05-05T06:21:07.891Z,32.07
2023-05-05T06:23:34.209Z,31.89
2023-05-05T06:26:00.564Z,31.91
2023-05-05T06:28:26.915Z,31.89
2023-05-05T06:30:53.236Z,32.15
2023-05-05T06:33:19.566Z,31.87
2023-05-05T06:35:47.082Z,31.87
2023-05-05T06:38:13.411Z,31.94
2023-05-05T06:40:39.783Z,32.09
2023-05-05T06:43:06.123Z,32.01
2023-05-05T06:45:32.553Z,32.07
2023-05-05T06:47:58.997Z,32.05
2023-05-05T06:50:25.343Z,31.68
2023-05-05T06:52:53.087Z,31.87
2023-05-05T06:55:19.569Z,31.79
2023-05-05T06:57:45.904Z,31.78
2023-05-05T07:00:13.868Z,31.89
2023-05-05T07:02:40.486Z,31.60
2023-05-05T07:05:06.934Z,31.59
2023-05-05T07:07:33.259Z,31.57
2023-05-05T07:09:59.580Z,31.78
2023-05-05T07:12:26.105Z,32.01
2023-05-05T07:14:52.445Z,31.93
2023-05-05T07:17:18.759Z,31.91
2023-05-05T07:19:45.083Z,32.13
2023-05-05T07:22:11.445Z,32.11
2023-05-05T07:24:37.777Z,32.52
2023-05-05T07:27:04.131Z,32.50
2023-05-05T07:29:30.658Z,32.55
2023-05-05T07:31:57.007Z,32.83
2023-05-05T07:34:23.346Z,32.70
2023-05-05T07:36:49.668Z,32.89
2023-05-05T07:39:16.023Z,34.00
2023-05-05T07:41:42.584Z,35.75
2023-05-05T07:44:08.891Z,35.62
2023-05-05T07:46:35.248Z,34.72
2023-05-05T07:49:01.662Z,34.82
2023-05-05T07:51:27.953Z,34.74
2023-05-05T07:53:54.964Z,35.05
2023-05-05T07:56:21.922Z,34.97
2023-05-05T07:58:48.250Z,35.40
2023-05-05T08:01:14.576Z,35.73
2023-05-05T08:03:41.327Z,36.27
2023-05-05T08:06:11.330Z,36.36
2023-05-05T08:08:37.742Z,35.91
2023-05-05T08:11:04.054Z,36.19
2023-05-05T08:13:30.396Z,36.10
2023-05-05T08:15:56.900Z,36.30
2023-05-05T08:18:24.386Z,36.15
2023-05-05T08:20:50.670Z,35.99
2023-05-05T08:23:17.231Z,35.90
2023-05-05T08:25:43.526Z,35.88
2023-05-05T08:28:09.896Z,36.35
2023-05-05T08:30:36.535Z,36.18
2023-05-05T08:33:02.833Z,36.43
2023-05-05T08:35:29.142Z,36.07
2023-05-05T08:37:58.121Z,36.47
2023-05-05T08:40:27.032Z,37.02
2023-05-05T08:42:53.349Z,36.96
2023-05-05T08:45:19.704Z,37.25
2023-05-05T08:47:46.173Z,36.95
2023-05-05T08:50:12.591Z,36.96
2023-05-05T08:52:40.380Z,36.89
2023-05-05T08:55:33.392Z,36.97
2023-05-05T08:58:08.396Z,36.83
2023-05-05T09:00:34.728Z,36.82
2023-05-05T09:03:01.381Z,36.55
2023-05-05T09:05:27.900Z,36.85
2023-05-05T09:07:54.304Z,36.57
2023-05-05T09:10:20.914Z,36.31
2023-05-05T09:12:47.472Z,36.28
2023-05-05T09:15:14.083Z,36.26
2023-05-05T09:17:40.557Z,36.20
2023-05-05T09:20:07.398Z,36.28
2023-05-05T09:22:37.361Z,36.13
2023-05-05T09:25:04.254Z,36.02
2023-05-05T09:27:30.601Z,36.19
2023-05-05T09:29:57.350Z,36.07
2023-05-05T09:32:23.714Z,35.79
2023-05-05T09:34:59.617Z,35.83
2023-05-05T09:37:29.419Z,35.65
2023-05-05T09:39:55.834Z,35.60
2023-05-05T09:42:22.286Z,35.47
2023-05-05T09:44:48.838Z,35.52
2023-05-05T09:47:28.509Z,35.51
2023-05-05T09:49:59.014Z,35.48
2023-05-05T09:52:25.652Z,35.36
2023-05-05T09:54:56.137Z,35.33
2023-05-05T09:57:26.105Z,35.37
2023-05-05T09:59:57.240Z,35.39
2023-05-05T10:02:29.778Z,35.13
2023-05-05T10:05:09.412Z,35.33
2023-05-05T10:07:36.822Z,35.23
2023-05-05T10:10:07.090Z,34.78
2023-05-05T10:12:37.020Z,34.92
2023-05-05T10:15:03.946Z,34.54
2023-05-05T10:17:31.316Z,34.43
2023-05-05T10:19:57.951Z,35.03
2023-05-05T10:22:24.284Z,34.58
2023-05-05T10:24:51.151Z,34.60
2023-05-05T10:27:19.159Z,34.63
2023-05-05T10:29:48.357Z,34.69
2023-05-05T10:32:53.197Z,34.81
2023-05-05T10:35:22.100Z,34.87
2023-05-05T10:37:48.523Z,34.95
2023-05-05T10:40:14.983Z,35.01
2023-05-05T10:42:41.337Z,34.91
2023-05-05T10:45:07.936Z,34.75
2023-05-05T10:47:34.793Z,34.60
2023-05-05T10:50:04.243Z,34.61
2023-05-05T10:52:35.412Z,34.39
2023-05-05T10:55:09.511Z,34.43
2023-05-05T10:57:37.025Z,34.55
2023-05-05T11:00:04.324Z,34.37
2023-05-05T11:02:31.569Z,34.65
2023-05-05T11:05:16.653Z,34.25
2023-05-05T11:07:46.319Z,34.54
2023-05-05T11:10:13.224Z,34.29
2023-05-05T11:13:03.614Z,34.53
2023-05-05T11:15:30.245Z,34.34
2023-05-05T11:17:57.420Z,34.35
2023-05-05T11:20:36.800Z,34.60
2023-05-05T11:23:03.269Z,35.43
2023-05-05T11:25:36.279Z,44.16
2023-05-05T11:28:09.416Z,45.79
2023-05-05T11:30:36.096Z,44.52
2023-05-05T11:33:21.248Z,45.99
2023-05-05T11:36:14.005Z,46.12
2023-05-05T11:38:58.988Z,47.32
2023-05-05T11:41:31.170Z,47.42
2023-05-05T11:44:09.649Z,47.56
2023-05-05T11:46:36.177Z,46.88
2023-05-05T11:49:02.610Z,46.82
2023-05-05T11:51:28.928Z,46.92
2023-05-05T11:53:56.017Z,47.31
2023-05-05T11:56:23.777Z,46.81
2023-05-05T11:59:08.201Z,44.23
2023-05-05T12:01:34.918Z,43.10
2023-05-05T12:04:01.470Z,41.80
2023-05-05T12:06:29.800Z,41.20
2023-05-05T12:08:56.178Z,40.88
2023-05-05T12:11:23.172Z,40.48
2023-05-05T12:13:49.505Z,40.18
2023-05-05T12:16:15.960Z,39.71
2023-05-05T12:18:42.381Z,39.71
2023-05-05T12:21:14.853Z,39.97
2023-05-05T12:23:41.195Z,39.73
2023-05-05T12:26:08.023Z,39.66
2023-05-05T12:28:44.569Z,39.38
2023-05-05T12:31:11.610Z,39.07
2023-05-05T12:33:41.100Z,39.05
2023-05-05T12:36:07.750Z,38.82
2023-05-05T12:38:34.825Z,38.54
2023-05-05T12:41:01.179Z,38.35
2023-05-05T12:43:28.342Z,38.65
2023-05-05T12:46:07.634Z,37.75
2023-05-05T12:48:34.531Z,38.10
2023-05-05T12:51:11.037Z,37.92
2023-05-05T12:53:37.395Z,37.72
2023-05-05T12:56:03.763Z,37.76
2023-05-05T12:58:46.270Z,37.56
2023-05-05T13:01:12.668Z,37.76
2023-05-05T13:03:39.001Z,37.61
2023-05-05T13:06:21.137Z,37.33
2023-05-05T13:08:48.065Z,37.38
2023-05-05T13:11:14.392Z,37.35
2023-05-05T13:13:42.098Z,37.36
2023-05-05T13:16:08.481Z,37.20
2023-05-05T13:18:47.414Z,37.20
2023-05-05T13:21:13.836Z,37.37
2023-05-05T13:23:44.138Z,37.51
2023-05-05T13:26:10.801Z,37.11
2023-05-05T13:28:37.176Z,37.07
2023-05-05T13:31:03.551Z,37.25
2023-05-05T13:33:29.937Z,37.18
2023-05-05T13:35:56.259Z,37.03
2023-05-05T13:38:22.659Z,37.29
2023-05-05T13:40:48.972Z,37.03
2023-05-05T13:43:15.332Z,37.21
2023-05-05T13:45:42.114Z,37.33
2023-05-05T13:50:34.785Z,37.12
2023-05-05T13:53:01.171Z,37.19
2023-05-05T13:55:30.527Z,37.19
2023-05-05T13:57:56.861Z,37.17
2023-05-05T14:00:23.234Z,37.22
2023-05-05T14:02:49.607Z,37.15
2023-05-05T14:05:16.268Z,37.36
2023-05-05T14:07:42.966Z,37.38
2023-05-05T14:10:09.651Z,37.48
2023-05-05T14:12:35.969Z,37.24
2023-05-05T14:15:02.629Z,37.24
2023-05-05T14:17:28.990Z,37.25
2023-05-05T14:19:55.667Z,37.42
2023-05-05T14:22:21.955Z,37.43
2023-05-05T14:24:48.253Z,37.39
2023-05-05T14:27:14.529Z,37.46
2023-05-05T14:29:40.849Z,37.61
2023-05-05T14:32:07.206Z,37.67
2023-05-05T14:34:33.547Z,37.74
2023-05-05T14:36:59.862Z,37.69
2023-05-05T14:39:26.166Z,37.74
2023-05-05T14:41:52.452Z,37.76
2023-05-05T14:44:18.749Z,37.78
2023-05-05T14:46:46.348Z,37.61
2023-05-05T14:49:13.125Z,37.58
2023-05-05T14:51:39.404Z,37.62
2023-05-05T14:54:09.484Z,37.61
2023-05-05T14:56:43.656Z,37.69
2023-05-05T14:59:09.960Z,37.51
2023-05-05T15:01:37.185Z,37.64
2023-05-05T15:04:03.610Z,37.78
2023-05-05T15:06:29.943Z,37.73
2023-05-05T15:08:57.019Z,37.60
2023-05-05T15:11:23.315Z,37.62
2023-05-05T15:13:49.594Z,37.53
2023-05-05T15:16:15.935Z,37.59
2023-05-05T15:18:42.219Z,37.68
2023-05-05T15:21:08.540Z,37.60
2023-05-05T15:23:34.855Z,37.65
2023-05-05T15:26:01.280Z,37.69
2023-05-05T15:28:27.557Z,37.31
2023-05-05T15:30:54.010Z,37.64
2023-05-05T15:33:20.294Z,37.55
2023-05-05T15:35:46.614Z,37.45
2023-05-05T15:38:12.891Z,37.36
2023-05-05T15:40:39.218Z,37.13
2023-05-05T15:43:05.550Z,37.40
2023-05-05T15:45:31.881Z,37.22
2023-05-05T15:47:58.266Z,37.41
2023-05-05T15:50:24.582Z,37.29
2023-05-05T15:52:51.081Z,37.25
2023-05-05T15:55:17.547Z,37.24
2023-05-05T15:57:44.197Z,37.30
2023-05-05T16:00:10.698Z,37.41
2023-05-05T16:02:37.094Z,37.15
2023-05-05T16:05:03.497Z,37.13
2023-05-05T16:07:29.825Z,37.11
2023-05-05T16:09:56.848Z,37.14
2023-05-05T16:12:23.256Z,37.14
2023-05-05T16:14:49.568Z,37.17
2023-05-05T16:17:15.892Z,37.19
2023-05-05T16:19:42.213Z,37.22
2023-05-05T16:22:08.534Z,37.12
2023-05-05T16:24:34.842Z,37.23
2023-05-05T16:27:01.166Z,37.27
2023-05-05T16:29:27.541Z,36.98
2023-05-05T16:31:53.883Z,37.20
2023-05-05T16:34:20.282Z,37.03
2023-05-05T16:36:46.622Z,37.26
2023-05-05T16:39:13.633Z,37.10
2023-05-05T16:41:40.283Z,37.02
2023-05-05T16:44:06.860Z,37.08
2023-05-05T16:46:37.130Z,37.00
2023-05-05T16:49:03.780Z,36.87
2023-05-05T16:51:30.158Z,37.06
2023-05-05T16:53:56.488Z,37.18
2023-05-05T16:56:22.824Z,37.08
2023-05-05T16:58:49.151Z,36.93
2023-05-05T17:01:15.533Z,36.96
2023-05-05T17:03:41.908Z,36.76
2023-05-05T17:06:08.466Z,36.92
2023-05-05T17:08:34.828Z,37.12
2023-05-05T17:11:01.143Z,36.85
2023-05-05T17:13:27.461Z,36.98
2023-05-05T17:15:53.831Z,36.89
2023-05-05T17:18:22.580Z,36.85
2023-05-05T17:20:49.029Z,36.73
2023-05-05T17:23:16.574Z,36.76
2023-05-05T17:25:42.996Z,36.93
2023-05-05T17:28:09.315Z,36.75
2023-05-05T17:30:37.479Z,36.92
2023-05-05T17:33:03.837Z,37.00
2023-05-05T17:35:30.202Z,37.03
2023-05-05T17:37:56.680Z,36.84
2023-05-05T17:40:23.063Z,36.94
2023-05-05T17:42:49.388Z,36.79
2023-05-05T17:45:15.970Z,36.87
2023-05-05T17:47:42.316Z,36.82
2023-05-05T17:50:11.337Z,36.83
2023-05-05T17:52:38.193Z,36.82
2023-05-05T17:55:04.683Z,36.67
2023-05-05T17:57:31.163Z,36.72
2023-05-05T17:59:58.517Z,36.85
2023-05-05T18:02:25.145Z,36.69
2023-05-05T18:04:53.090Z,36.70
2023-05-05T18:07:19.398Z,36.88
2023-05-05T18:09:47.188Z,37.19
2023-05-05T18:12:15.582Z,36.98
2023-05-05T18:14:42.120Z,37.20
2023-05-05T18:17:09.285Z,37.14
2023-05-05T18:19:35.609Z,37.20
2023-05-05T18:22:01.948Z,37.29
2023-05-05T18:24:28.612Z,37.27
2023-05-05T18:26:54.963Z,37.19
2023-05-05T18:29:23.975Z,37.22
2023-05-05T18:31:53.673Z,37.38
2023-05-05T18:34:21.568Z,37.32
2023-05-05T18:36:47.939Z,37.40
2023-05-05T18:39:14.464Z,37.56
2023-05-05T18:41:41.047Z,37.67
2023-05-05T18:44:07.418Z,37.60
2023-05-05T18:46:33.816Z,37.79
2023-05-05T18:49:00.899Z,37.82
2023-05-05T18:51:27.844Z,37.76
2023-05-05T18:53:54.572Z,37.78
2023-05-05T18:56:21.548Z,37.67
2023-05-05T18:58:48.194Z,37.72
2023-05-05T19:01:14.635Z,37.80
2023-05-05T19:03:42.364Z,38.05
2023-05-05T19:06:08.941Z,38.07
2023-05-05T19:08:35.324Z,38.25
2023-05-05T19:11:01.683Z,37.93
2023-05-05T19:13:28.033Z,38.19
2023-05-05T19:15:57.393Z,38.07
2023-05-05T19:18:24.278Z,38.17
2023-05-05T19:20:50.926Z,38.45
2023-05-05T19:23:17.726Z,38.41
2023-05-05T19:25:44.078Z,38.41
2023-05-05T19:28:12.000Z,38.59
2023-05-05T19:30:38.318Z,38.24
2023-05-05T19:33:04.794Z,38.32
2023-05-05T19:35:31.303Z,38.44
2023-05-05T19:37:57.669Z,38.36
2023-05-05T19:40:24.060Z,38.33
2023-05-05T19:42:51.399Z,38.30
2023-05-05T19:45:17.788Z,38.35
2023-05-05T19:47:44.639Z,38.26
2023-05-05T19:50:11.643Z,38.40
2023-05-05T19:52:38.411Z,38.36
2023-05-05T19:55:06.008Z,38.59
2023-05-05T19:57:32.339Z,38.34
2023-05-05T19:59:58.680Z,38.23
2023-05-05T20:02:27.325Z,38.22
2023-05-05T20:04:54.080Z,38.38
2023-05-05T20:07:20.837Z,38.58
2023-05-05T20:09:48.562Z,38.26
2023-05-05T20:12:16.835Z,38.43
2023-05-05T20:14:44.207Z,38.26
2023-05-05T20:17:11.808Z,38.36
2023-05-05T20:19:38.585Z,38.41
2023-05-05T20:22:04.910Z,38.57
2023-05-05T20:24:32.142Z,38.46
2023-05-05T20:26:58.797Z,38.59
2023-05-05T20:29:25.358Z,38.58
2023-05-05T20:31:51.726Z,38.36
2023-05-05T20:34:18.149Z,38.28
2023-05-05T20:36:47.705Z,38.61
2023-05-05T20:39:14.511Z,38.64
2023-05-05T20:41:41.631Z,38.69
2023-05-05T20:44:10.113Z,38.68
2023-05-05T20:46:36.687Z,38.69
2023-05-05T20:49:03.391Z,38.62
2023-05-05T20:51:31.999Z,38.91
2023-05-05T20:53:58.377Z,38.46
2023-05-05T20:56:24.688Z,38.46
2023-05-05T20:58:51.008Z,38.53
2023-05-05T21:01:17.437Z,38.52
2023-05-05T21:03:43.870Z,38.40
2023-05-05T21:06:10.197Z,38.21
2023-05-05T21:08:36.741Z,38.40
2023-05-05T21:11:03.054Z,38.57
2023-05-05T21:13:29.446Z,38.28
2023-05-05T21:15:55.861Z,38.34
2023-05-05T21:18:22.290Z,38.32
2023-05-05T21:20:49.608Z,38.03
2023-05-05T21:23:16.013Z,38.39
2023-05-05T21:25:42.549Z,38.23
2023-05-05T21:28:08.894Z,38.07
2023-05-05T21:30:35.507Z,38.36
2023-05-05T21:33:01.879Z,38.43
2023-05-05T21:35:28.216Z,38.19
2023-05-05T21:37:56.290Z,38.35
2023-05-05T21:40:22.920Z,38.25
2023-05-05T21:42:49.229Z,38.17
2023-05-05T21:45:16.000Z,38.21
2023-05-05T21:47:42.428Z,38.17
2023-05-05T21:50:10.084Z,38.01
2023-05-05T21:52:37.697Z,38.14
2023-05-05T21:55:04.180Z,38.30
2023-05-05T21:57:30.499Z,37.99
2023-05-05T21:59:56.815Z,37.97
2023-05-05T22:02:25.289Z,38.18
2023-05-05T22:04:53.737Z,38.07
2023-05-05T22:07:20.083Z,38.28
2023-05-05T22:09:46.480Z,38.45
2023-05-05T22:12:13.060Z,37.91
2023-05-05T22:14:40.204Z,38.00
2023-05-05T22:17:06.648Z,37.96
2023-05-05T22:19:33.335Z,38.06
2023-05-05T22:21:59.745Z,37.98
2023-05-05T22:24:26.565Z,38.00
2023-05-05T22:26:55.564Z,38.03
2023-05-05T22:29:25.511Z,38.40
2023-05-05T22:31:51.890Z,38.12
2023-05-05T22:34:19.720Z,38.20
2023-05-05T22:36:48.428Z,38.15
2023-05-05T22:39:14.741Z,38.25
2023-05-05T22:41:41.103Z,38.07
2023-05-05T22:44:07.671Z,38.01
2023-05-05T22:46:34.020Z,38.09
2023-05-05T22:49:01.702Z,38.31
2023-05-05T22:51:28.058Z,38.25
2023-05-05T22:53:54.382Z,38.11
2023-05-05T22:56:20.876Z,38.11
2023-05-05T22:58:47.522Z,38.25
2023-05-05T23:01:14.073Z,38.02
2023-05-05T23:03:41.455Z,38.20
2023-05-05T23:06:07.806Z,38.11
2023-05-05T23:08:34.127Z,37.95
2023-05-05T23:11:00.806Z,37.89
2023-05-05T23:13:28.164Z,38.03
2023-05-05T23:15:54.519Z,38.03
2023-05-05T23:18:20.839Z,38.05
2023-05-05T23:20:47.170Z,37.88
2023-05-05T23:23:13.497Z,38.24
2023-05-05T23:25:40.162Z,38.07
2023-05-05T23:28:06.524Z,37.85
2023-05-05T23:30:33.181Z,37.95
2023-05-05T23:33:00.840Z,37.81
2023-05-05T23:35:28.333Z,38.11
2023-05-05T23:37:55.695Z,37.97
2023-05-05T23:40:22.244Z,37.97
2023-05-05T23:42:48.587Z,38.09
2023-05-05T23:45:15.982Z,37.95
2023-05-05T23:47:43.396Z,37.96
2023-05-05T23:50:09.776Z,37.93
2023-05-05T23:52:37.286Z,37.94
2023-05-05T23:55:03.636Z,37.89
2023-05-05T23:57:30.098Z,38.02
2023-05-05T23:59:58.213Z,37.82
